Bacau, Romania
Current Conditions -  °F | °C
As of 3:00 AM on Wednesday 22 Oct 2014 (Local Time) from LRBC Reporting Station
Moderate Fog Moderate Fog  
Wind Chill: 52°   Ceiling: 100
Heat Index: 52°   Visibility: 0.03mi
Dew Point: 52°   Wind: 2mph
Humidity: 100%   Direction: 10°N
Pressure: 29.77"   Gusts: NA
Location:  46.58°N, 26.92°E
Report Text: LRBC 220000Z AUTO 01002KT 0050 R34/0225N FG VV001 11/11 Q1008
Loading
Personal Weather Stations






























Interactive Weather Map
Tropical Storm Tracking
New forecast layout! Learn more

10-Day Weather Forecast

Advertisements
Track Severe Weather on mobile